sensor_id;sensor_type;location;lat;lon;timestamp;P1;durP1;ratioP1;P2;durP2;ratioP2
6288;SDS011;3177;49.880;8.836;2023-06-26T00:01:31;6.53;;;4.15;;
6288;SDS011;3177;49.880;8.836;2023-06-26T00:03:58;4.55;;;4.10;;
6288;SDS011;3177;49.880;8.836;2023-06-26T00:06:25;4.47;;;4.07;;
6288;SDS011;3177;49.880;8.836;2023-06-26T00:08:53;5.18;;;4.05;;
6288;SDS011;3177;49.880;8.836;2023-06-26T00:11:20;4.45;;;4.05;;
6288;SDS011;3177;49.880;8.836;2023-06-26T00:13:47;4.30;;;3.90;;
6288;SDS011;3177;49.880;8.836;2023-06-26T00:16:16;4.10;;;3.70;;
6288;SDS011;3177;49.880;8.836;2023-06-26T00:18:43;5.10;;;4.30;;
6288;SDS011;3177;49.880;8.836;2023-06-26T00:21:10;4.40;;;4.00;;
6288;SDS011;3177;49.880;8.836;2023-06-26T00:23:37;4.50;;;4.10;;
6288;SDS011;3177;49.880;8.836;2023-06-26T00:26:04;4.70;;;4.22;;
6288;SDS011;3177;49.880;8.836;2023-06-26T00:28:31;4.88;;;4.32;;
6288;SDS011;3177;49.880;8.836;2023-06-26T00:30:58;6.45;;;4.25;;
6288;SDS011;3177;49.880;8.836;2023-06-26T00:33:26;5.45;;;4.30;;
6288;SDS011;3177;49.880;8.836;2023-06-26T00:35:53;4.93;;;3.88;;
6288;SDS011;3177;49.880;8.836;2023-06-26T00:38:20;6.72;;;4.20;;
6288;SDS011;3177;49.880;8.836;2023-06-26T00:40:47;4.85;;;4.35;;
6288;SDS011;3177;49.880;8.836;2023-06-26T00:43:14;5.25;;;4.60;;
6288;SDS011;3177;49.880;8.836;2023-06-26T00:45:42;5.05;;;4.55;;
6288;SDS011;3177;49.880;8.836;2023-06-26T00:48:09;4.60;;;4.10;;
6288;SDS011;3177;49.880;8.836;2023-06-26T00:50:39;4.60;;;4.20;;
6288;SDS011;3177;49.880;8.836;2023-06-26T00:53:07;6.15;;;4.03;;
6288;SDS011;3177;49.880;8.836;2023-06-26T00:55:34;6.50;;;4.22;;
6288;SDS011;3177;49.880;8.836;2023-06-26T00:58:04;5.07;;;4.53;;
6288;SDS011;3177;49.880;8.836;2023-06-26T01:00:31;5.70;;;4.53;;
6288;SDS011;3177;49.880;8.836;2023-06-26T01:02:58;5.22;;;4.72;;
6288;SDS011;3177;49.880;8.836;2023-06-26T01:05:26;5.40;;;4.25;;
6288;SDS011;3177;49.880;8.836;2023-06-26T01:07:54;5.20;;;4.30;;
6288;SDS011;3177;49.880;8.836;2023-06-26T01:10:22;4.25;;;3.80;;
6288;SDS011;3177;49.880;8.836;2023-06-26T01:12:49;3.90;;;3.58;;
6288;SDS011;3177;49.880;8.836;2023-06-26T01:15:16;4.80;;;4.30;;
6288;SDS011;3177;49.880;8.836;2023-06-26T01:17:43;4.95;;;4.03;;
6288;SDS011;3177;49.880;8.836;2023-06-26T01:20:12;4.72;;;4.00;;
6288;SDS011;3177;49.880;8.836;2023-06-26T01:22:43;4.70;;;4.22;;
6288;SDS011;3177;49.880;8.836;2023-06-26T01:25:15;5.82;;;4.18;;
6288;SDS011;3177;49.880;8.836;2023-06-26T01:27:46;4.35;;;3.90;;
6288;SDS011;3177;49.880;8.836;2023-06-26T01:30:15;5.03;;;4.38;;
6288;SDS011;3177;49.880;8.836;2023-06-26T01:32:43;5.43;;;4.15;;
6288;SDS011;3177;49.880;8.836;2023-06-26T01:35:10;4.32;;;3.65;;
6288;SDS011;3177;49.880;8.836;2023-06-26T01:37:37;4.80;;;4.15;;
6288;SDS011;3177;49.880;8.836;2023-06-26T01:40:05;4.70;;;4.25;;
6288;SDS011;3177;49.880;8.836;2023-06-26T01:42:32;4.97;;;4.47;;
6288;SDS011;3177;49.880;8.836;2023-06-26T01:45:01;5.80;;;4.05;;
6288;SDS011;3177;49.880;8.836;2023-06-26T01:47:30;5.25;;;3.97;;
6288;SDS011;3177;49.880;8.836;2023-06-26T01:50:00;4.60;;;4.20;;
6288;SDS011;3177;49.880;8.836;2023-06-26T01:52:31;5.10;;;4.38;;
6288;SDS011;3177;49.880;8.836;2023-06-26T01:55:01;5.40;;;4.00;;
6288;SDS011;3177;49.880;8.836;2023-06-26T01:57:29;5.35;;;4.63;;
6288;SDS011;3177;49.880;8.836;2023-06-26T01:59:58;6.13;;;4.78;;
6288;SDS011;3177;49.880;8.836;2023-06-26T02:02:27;6.88;;;4.72;;
6288;SDS011;3177;49.880;8.836;2023-06-26T02:04:55;4.55;;;4.15;;
6288;SDS011;3177;49.880;8.836;2023-06-26T02:07:22;5.20;;;4.68;;
6288;SDS011;3177;49.880;8.836;2023-06-26T02:09:49;5.65;;;4.40;;
6288;SDS011;3177;49.880;8.836;2023-06-26T02:12:16;5.63;;;3.83;;
6288;SDS011;3177;49.880;8.836;2023-06-26T02:14:43;7.40;;;4.80;;
6288;SDS011;3177;49.880;8.836;2023-06-26T02:17:10;5.40;;;4.07;;
6288;SDS011;3177;49.880;8.836;2023-06-26T02:19:39;4.35;;;3.95;;
6288;SDS011;3177;49.880;8.836;2023-06-26T02:22:12;5.30;;;4.80;;
6288;SDS011;3177;49.880;8.836;2023-06-26T02:24:40;5.95;;;4.70;;
6288;SDS011;3177;49.880;8.836;2023-06-26T02:27:07;4.93;;;4.43;;
6288;SDS011;3177;49.880;8.836;2023-06-26T02:29:34;5.13;;;4.07;;
6288;SDS011;3177;49.880;8.836;2023-06-26T02:32:01;4.88;;;4.35;;
6288;SDS011;3177;49.880;8.836;2023-06-26T02:34:28;4.93;;;4.43;;
6288;SDS011;3177;49.880;8.836;2023-06-26T02:36:57;5.93;;;4.18;;
6288;SDS011;3177;49.880;8.836;2023-06-26T02:39:25;6.00;;;4.70;;
6288;SDS011;3177;49.880;8.836;2023-06-26T02:41:52;5.22;;;4.72;;
6288;SDS011;3177;49.880;8.836;2023-06-26T02:44:19;4.60;;;4.00;;
6288;SDS011;3177;49.880;8.836;2023-06-26T02:46:46;8.30;;;4.30;;
6288;SDS011;3177;49.880;8.836;2023-06-26T02:49:13;5.15;;;4.28;;
6288;SDS011;3177;49.880;8.836;2023-06-26T02:51:40;5.23;;;4.37;;
6288;SDS011;3177;49.880;8.836;2023-06-26T02:54:09;6.63;;;4.67;;
6288;SDS011;3177;49.880;8.836;2023-06-26T02:56:36;5.20;;;4.70;;
6288;SDS011;3177;49.880;8.836;2023-06-26T02:59:03;5.63;;;4.70;;
6288;SDS011;3177;49.880;8.836;2023-06-26T03:01:30;5.03;;;4.53;;
6288;SDS011;3177;49.880;8.836;2023-06-26T03:03:57;5.35;;;4.30;;
6288;SDS011;3177;49.880;8.836;2023-06-26T03:06:25;5.30;;;4.80;;
6288;SDS011;3177;49.880;8.836;2023-06-26T03:08:53;8.20;;;4.60;;
6288;SDS011;3177;49.880;8.836;2023-06-26T03:11:21;7.53;;;4.67;;
6288;SDS011;3177;49.880;8.836;2023-06-26T03:13:48;5.60;;;4.78;;
6288;SDS011;3177;49.880;8.836;2023-06-26T03:16:15;7.00;;;4.63;;
6288;SDS011;3177;49.880;8.836;2023-06-26T03:18:42;7.73;;;4.70;;
6288;SDS011;3177;49.880;8.836;2023-06-26T03:21:09;6.13;;;4.85;;
6288;SDS011;3177;49.880;8.836;2023-06-26T03:23:36;5.37;;;4.57;;
6288;SDS011;3177;49.880;8.836;2023-06-26T03:26:03;6.80;;;5.60;;
6288;SDS011;3177;49.880;8.836;2023-06-26T03:28:32;5.23;;;4.73;;
6288;SDS011;3177;49.880;8.836;2023-06-26T03:30:59;6.57;;;5.40;;
6288;SDS011;3177;49.880;8.836;2023-06-26T03:33:26;5.30;;;4.60;;
6288;SDS011;3177;49.880;8.836;2023-06-26T03:35:53;4.63;;;4.23;;
6288;SDS011;3177;49.880;8.836;2023-06-26T03:38:21;6.80;;;5.40;;
6288;SDS011;3177;49.880;8.836;2023-06-26T03:40:49;7.50;;;4.97;;
6288;SDS011;3177;49.880;8.836;2023-06-26T03:43:16;6.97;;;4.93;;
6288;SDS011;3177;49.880;8.836;2023-06-26T03:45:44;7.70;;;5.20;;
6288;SDS011;3177;49.880;8.836;2023-06-26T03:48:11;6.53;;;4.90;;
6288;SDS011;3177;49.880;8.836;2023-06-26T03:50:39;5.20;;;4.70;;
6288;SDS011;3177;49.880;8.836;2023-06-26T03:53:06;5.27;;;4.77;;
6288;SDS011;3177;49.880;8.836;2023-06-26T03:55:33;6.70;;;5.00;;
6288;SDS011;3177;49.880;8.836;2023-06-26T03:58:00;5.97;;;5.07;;
6288;SDS011;3177;49.880;8.836;2023-06-26T04:00:27;9.60;;;6.33;;
6288;SDS011;3177;49.880;8.836;2023-06-26T04:02:56;7.50;;;5.10;;
6288;SDS011;3177;49.880;8.836;2023-06-26T04:05:23;9.33;;;4.93;;
6288;SDS011;3177;49.880;8.836;2023-06-26T04:07:50;6.27;;;5.00;;
6288;SDS011;3177;49.880;8.836;2023-06-26T04:10:17;6.07;;;5.47;;
6288;SDS011;3177;49.880;8.836;2023-06-26T04:12:45;5.57;;;5.07;;
6288;SDS011;3177;49.880;8.836;2023-06-26T04:15:13;7.33;;;5.70;;
6288;SDS011;3177;49.880;8.836;2023-06-26T04:17:40;8.77;;;5.50;;
6288;SDS011;3177;49.880;8.836;2023-06-26T04:20:08;17.73;;;5.67;;
6288;SDS011;3177;49.880;8.836;2023-06-26T04:22:36;11.67;;;5.80;;
6288;SDS011;3177;49.880;8.836;2023-06-26T04:25:03;10.93;;;5.30;;
6288;SDS011;3177;49.880;8.836;2023-06-26T04:27:30;13.77;;;6.07;;
6288;SDS011;3177;49.880;8.836;2023-06-26T04:29:57;5.70;;;4.67;;
6288;SDS011;3177;49.880;8.836;2023-06-26T04:32:24;7.17;;;5.07;;
6288;SDS011;3177;49.880;8.836;2023-06-26T04:34:52;6.67;;;5.53;;
6288;SDS011;3177;49.880;8.836;2023-06-26T04:37:20;6.73;;;5.17;;
6288;SDS011;3177;49.880;8.836;2023-06-26T04:39:47;6.90;;;5.40;;
6288;SDS011;3177;49.880;8.836;2023-06-26T04:42:14;6.90;;;5.47;;
6288;SDS011;3177;49.880;8.836;2023-06-26T04:44:41;7.37;;;5.13;;
6288;SDS011;3177;49.880;8.836;2023-06-26T04:47:08;6.53;;;5.00;;
6288;SDS011;3177;49.880;8.836;2023-06-26T04:49:36;7.77;;;4.80;;
6288;SDS011;3177;49.880;8.836;2023-06-26T04:52:03;10.73;;;5.17;;
6288;SDS011;3177;49.880;8.836;2023-06-26T04:54:31;6.40;;;5.23;;
6288;SDS011;3177;49.880;8.836;2023-06-26T04:56:58;6.13;;;4.80;;
6288;SDS011;3177;49.880;8.836;2023-06-26T04:59:25;5.50;;;5.00;;
6288;SDS011;3177;49.880;8.836;2023-06-26T05:01:52;6.13;;;5.17;;
6288;SDS011;3177;49.880;8.836;2023-06-26T05:04:20;5.60;;;5.00;;
6288;SDS011;3177;49.880;8.836;2023-06-26T05:06:47;6.90;;;5.23;;
6288;SDS011;3177;49.880;8.836;2023-06-26T05:09:14;7.10;;;5.30;;
6288;SDS011;3177;49.880;8.836;2023-06-26T05:11:43;6.63;;;5.73;;
6288;SDS011;3177;49.880;8.836;2023-06-26T05:14:10;10.90;;;6.10;;
6288;SDS011;3177;49.880;8.836;2023-06-26T05:16:38;8.67;;;6.30;;
6288;SDS011;3177;49.880;8.836;2023-06-26T05:19:05;10.00;;;5.70;;
6288;SDS011;3177;49.880;8.836;2023-06-26T05:21:32;9.53;;;5.33;;
6288;SDS011;3177;49.880;8.836;2023-06-26T05:24:00;6.37;;;5.73;;
6288;SDS011;3177;49.880;8.836;2023-06-26T05:26:28;6.50;;;5.70;;
6288;SDS011;3177;49.880;8.836;2023-06-26T05:28:57;8.13;;;6.00;;
6288;SDS011;3177;49.880;8.836;2023-06-26T05:31:24;8.20;;;5.40;;
6288;SDS011;3177;49.880;8.836;2023-06-26T05:33:51;9.57;;;5.07;;
6288;SDS011;3177;49.880;8.836;2023-06-26T05:36:20;9.27;;;5.67;;
6288;SDS011;3177;49.880;8.836;2023-06-26T05:38:49;5.10;;;4.60;;
6288;SDS011;3177;49.880;8.836;2023-06-26T05:41:16;6.40;;;5.17;;
6288;SDS011;3177;49.880;8.836;2023-06-26T05:43:43;6.60;;;5.60;;
6288;SDS011;3177;49.880;8.836;2023-06-26T05:46:12;6.03;;;5.43;;
6288;SDS011;3177;49.880;8.836;2023-06-26T05:48:39;8.23;;;5.13;;
6288;SDS011;3177;49.880;8.836;2023-06-26T05:51:07;7.53;;;5.95;;
6288;SDS011;3177;49.880;8.836;2023-06-26T05:53:34;9.77;;;5.60;;
6288;SDS011;3177;49.880;8.836;2023-06-26T05:56:01;7.40;;;5.78;;
6288;SDS011;3177;49.880;8.836;2023-06-26T05:58:28;6.95;;;6.10;;
6288;SDS011;3177;49.880;8.836;2023-06-26T06:00:56;9.95;;;6.25;;
6288;SDS011;3177;49.880;8.836;2023-06-26T06:03:25;11.25;;;5.75;;
6288;SDS011;3177;49.880;8.836;2023-06-26T06:05:52;7.13;;;5.68;;
6288;SDS011;3177;49.880;8.836;2023-06-26T06:08:19;8.80;;;5.43;;
6288;SDS011;3177;49.880;8.836;2023-06-26T06:10:46;7.70;;;5.93;;
6288;SDS011;3177;49.880;8.836;2023-06-26T06:13:13;8.43;;;6.03;;
6288;SDS011;3177;49.880;8.836;2023-06-26T06:15:40;8.90;;;5.35;;
6288;SDS011;3177;49.880;8.836;2023-06-26T06:18:07;6.50;;;5.35;;
6288;SDS011;3177;49.880;8.836;2023-06-26T06:20:36;6.30;;;4.53;;
6288;SDS011;3177;49.880;8.836;2023-06-26T06:23:03;6.60;;;5.13;;
6288;SDS011;3177;49.880;8.836;2023-06-26T06:25:31;8.13;;;4.97;;
6288;SDS011;3177;49.880;8.836;2023-06-26T06:27:58;6.35;;;4.88;;
6288;SDS011;3177;49.880;8.836;2023-06-26T06:30:25;6.30;;;4.75;;
6288;SDS011;3177;49.880;8.836;2023-06-26T06:32:53;5.90;;;5.30;;
6288;SDS011;3177;49.880;8.836;2023-06-26T06:35:20;6.57;;;4.60;;
6288;SDS011;3177;49.880;8.836;2023-06-26T06:37:48;6.78;;;4.65;;
6288;SDS011;3177;49.880;8.836;2023-06-26T06:40:16;6.47;;;4.70;;
6288;SDS011;3177;49.880;8.836;2023-06-26T06:42:43;4.72;;;3.97;;
6288;SDS011;3177;49.880;8.836;2023-06-26T06:45:10;4.35;;;3.75;;
6288;SDS011;3177;49.880;8.836;2023-06-26T06:47:37;4.30;;;3.90;;
6288;SDS011;3177;49.880;8.836;2023-06-26T06:50:04;3.67;;;3.35;;
6288;SDS011;3177;49.880;8.836;2023-06-26T06:52:34;4.25;;;3.65;;
6288;SDS011;3177;49.880;8.836;2023-06-26T06:55:03;7.00;;;3.70;;
6288;SDS011;3177;49.880;8.836;2023-06-26T06:57:33;3.92;;;3.50;;
6288;SDS011;3177;49.880;8.836;2023-06-26T07:00:02;4.05;;;3.65;;
6288;SDS011;3177;49.880;8.836;2023-06-26T07:02:30;3.95;;;3.55;;
6288;SDS011;3177;49.880;8.836;2023-06-26T07:04:57;4.47;;;3.40;;
6288;SDS011;3177;49.880;8.836;2023-06-26T07:07:25;8.40;;;3.20;;
6288;SDS011;3177;49.880;8.836;2023-06-26T07:09:55;3.97;;;3.55;;
6288;SDS011;3177;49.880;8.836;2023-06-26T07:12:24;4.30;;;3.80;;
6288;SDS011;3177;49.880;8.836;2023-06-26T07:14:52;4.72;;;3.33;;
6288;SDS011;3177;49.880;8.836;2023-06-26T07:17:19;4.55;;;3.45;;
6288;SDS011;3177;49.880;8.836;2023-06-26T07:19:46;3.72;;;3.42;;
6288;SDS011;3177;49.880;8.836;2023-06-26T07:22:13;4.32;;;3.53;;
6288;SDS011;3177;49.880;8.836;2023-06-26T07:24:40;3.97;;;3.33;;
6288;SDS011;3177;49.880;8.836;2023-06-26T07:27:07;4.30;;;3.75;;
6288;SDS011;3177;49.880;8.836;2023-06-26T07:29:36;4.18;;;3.75;;
6288;SDS011;3177;49.880;8.836;2023-06-26T07:32:03;4.30;;;3.90;;
6288;SDS011;3177;49.880;8.836;2023-06-26T07:34:30;5.45;;;3.90;;
6288;SDS011;3177;49.880;8.836;2023-06-26T07:36:57;4.90;;;3.65;;
6288;SDS011;3177;49.880;8.836;2023-06-26T07:39:24;5.20;;;3.80;;
6288;SDS011;3177;49.880;8.836;2023-06-26T07:41:52;4.15;;;3.45;;
6288;SDS011;3177;49.880;8.836;2023-06-26T07:44:19;4.00;;;3.63;;
6288;SDS011;3177;49.880;8.836;2023-06-26T07:46:47;4.75;;;3.90;;
6288;SDS011;3177;49.880;8.836;2023-06-26T07:49:14;3.83;;;3.50;;
6288;SDS011;3177;49.880;8.836;2023-06-26T07:51:41;4.45;;;3.33;;
6288;SDS011;3177;49.880;8.836;2023-06-26T07:54:08;4.43;;;3.75;;
6288;SDS011;3177;49.880;8.836;2023-06-26T07:56:51;4.00;;;3.60;;
6288;SDS011;3177;49.880;8.836;2023-06-26T07:59:19;5.93;;;4.63;;
6288;SDS011;3177;49.880;8.836;2023-06-26T08:01:48;5.28;;;4.43;;
6288;SDS011;3177;49.880;8.836;2023-06-26T08:04:15;6.05;;;4.10;;
6288;SDS011;3177;49.880;8.836;2023-06-26T08:06:42;4.25;;;3.80;;
6288;SDS011;3177;49.880;8.836;2023-06-26T08:09:10;5.30;;;3.78;;
6288;SDS011;3177;49.880;8.836;2023-06-26T08:11:37;7.95;;;4.32;;
6288;SDS011;3177;49.880;8.836;2023-06-26T08:14:04;6.63;;;4.40;;
6288;SDS011;3177;49.880;8.836;2023-06-26T08:16:32;21.63;;;4.55;;
6288;SDS011;3177;49.880;8.836;2023-06-26T08:19:00;4.70;;;4.20;;
6288;SDS011;3177;49.880;8.836;2023-06-26T08:21:27;3.92;;;3.53;;
6288;SDS011;3177;49.880;8.836;2023-06-26T08:23:54;5.18;;;4.18;;
6288;SDS011;3177;49.880;8.836;2023-06-26T08:26:21;8.05;;;4.43;;
6288;SDS011;3177;49.880;8.836;2023-06-26T08:28:48;4.22;;;3.83;;
6288;SDS011;3177;49.880;8.836;2023-06-26T08:31:15;4.82;;;4.20;;
6288;SDS011;3177;49.880;8.836;2023-06-26T08:33:42;4.97;;;4.40;;
6288;SDS011;3177;49.880;8.836;2023-06-26T08:36:11;4.60;;;4.20;;
6288;SDS011;3177;49.880;8.836;2023-06-26T08:38:38;8.93;;;4.80;;
6288;SDS011;3177;49.880;8.836;2023-06-26T08:41:06;5.57;;;4.82;;
6288;SDS011;3177;49.880;8.836;2023-06-26T08:43:33;5.18;;;4.72;;
6288;SDS011;3177;49.880;8.836;2023-06-26T08:46:00;8.05;;;5.15;;
6288;SDS011;3177;49.880;8.836;2023-06-26T08:48:28;5.63;;;4.57;;
6288;SDS011;3177;49.880;8.836;2023-06-26T08:50:56;7.50;;;4.88;;
6288;SDS011;3177;49.880;8.836;2023-06-26T08:53:28;9.65;;;5.40;;
6288;SDS011;3177;49.880;8.836;2023-06-26T08:55:57;6.97;;;4.85;;
6288;SDS011;3177;49.880;8.836;2023-06-26T08:58:24;5.65;;;4.80;;
6288;SDS011;3177;49.880;8.836;2023-06-26T09:00:51;5.95;;;4.68;;
6288;SDS011;3177;49.880;8.836;2023-06-26T09:03:21;5.70;;;5.15;;
6288;SDS011;3177;49.880;8.836;2023-06-26T09:05:48;5.88;;;4.70;;
6288;SDS011;3177;49.880;8.836;2023-06-26T09:08:15;5.47;;;4.55;;
6288;SDS011;3177;49.880;8.836;2023-06-26T09:10:43;5.60;;;5.07;;
6288;SDS011;3177;49.880;8.836;2023-06-26T09:13:10;40.72;;;6.70;;
6288;SDS011;3177;49.880;8.836;2023-06-26T09:15:38;5.47;;;4.80;;
6288;SDS011;3177;49.880;8.836;2023-06-26T09:18:05;6.38;;;4.47;;
6288;SDS011;3177;49.880;8.836;2023-06-26T09:20:32;6.63;;;5.88;;
6288;SDS011;3177;49.880;8.836;2023-06-26T09:23:00;6.80;;;4.35;;
6288;SDS011;3177;49.880;8.836;2023-06-26T09:25:27;4.72;;;4.32;;
6288;SDS011;3177;49.880;8.836;2023-06-26T09:27:55;6.35;;;4.85;;
6288;SDS011;3177;49.880;8.836;2023-06-26T09:30:23;5.63;;;4.13;;
6288;SDS011;3177;49.880;8.836;2023-06-26T09:32:50;6.13;;;4.55;;
6288;SDS011;3177;49.880;8.836;2023-06-26T09:35:19;4.82;;;4.43;;
6288;SDS011;3177;49.880;8.836;2023-06-26T09:37:46;4.95;;;4.55;;
6288;SDS011;3177;49.880;8.836;2023-06-26T09:40:13;5.28;;;4.78;;
6288;SDS011;3177;49.880;8.836;2023-06-26T09:42:41;5.95;;;4.13;;
6288;SDS011;3177;49.880;8.836;2023-06-26T09:45:12;6.90;;;4.25;;
6288;SDS011;3177;49.880;8.836;2023-06-26T09:47:44;9.43;;;4.25;;
6288;SDS011;3177;49.880;8.836;2023-06-26T09:50:20;5.30;;;4.40;;
6288;SDS011;3177;49.880;8.836;2023-06-26T09:52:48;6.45;;;4.25;;
6288;SDS011;3177;49.880;8.836;2023-06-26T09:55:17;7.63;;;4.57;;
6288;SDS011;3177;49.880;8.836;2023-06-26T09:57:47;5.28;;;4.13;;
6288;SDS011;3177;49.880;8.836;2023-06-26T10:00:16;7.47;;;3.92;;
6288;SDS011;3177;49.880;8.836;2023-06-26T10:02:43;6.90;;;3.88;;
6288;SDS011;3177;49.880;8.836;2023-06-26T10:05:10;5.85;;;4.03;;
6288;SDS011;3177;49.880;8.836;2023-06-26T10:07:38;7.38;;;4.13;;
6288;SDS011;3177;49.880;8.836;2023-06-26T10:10:06;4.65;;;4.25;;
6288;SDS011;3177;49.880;8.836;2023-06-26T10:12:34;4.05;;;3.75;;
6288;SDS011;3177;49.880;8.836;2023-06-26T10:15:02;5.07;;;3.75;;
6288;SDS011;3177;49.880;8.836;2023-06-26T10:17:32;4.72;;;3.80;;
6288;SDS011;3177;49.880;8.836;2023-06-26T10:20:00;6.22;;;4.10;;
6288;SDS011;3177;49.880;8.836;2023-06-26T10:22:33;6.78;;;3.85;;
6288;SDS011;3177;49.880;8.836;2023-06-26T10:25:01;4.82;;;4.32;;
6288;SDS011;3177;49.880;8.836;2023-06-26T10:27:31;7.93;;;4.32;;
6288;SDS011;3177;49.880;8.836;2023-06-26T10:30:00;4.88;;;4.40;;
6288;SDS011;3177;49.880;8.836;2023-06-26T10:32:29;5.88;;;4.13;;
6288;SDS011;3177;49.880;8.836;2023-06-26T10:34:57;4.97;;;4.13;;
6288;SDS011;3177;49.880;8.836;2023-06-26T10:37:43;7.25;;;4.68;;
6288;SDS011;3177;49.880;8.836;2023-06-26T10:40:11;7.88;;;4.25;;
6288;SDS011;3177;49.880;8.836;2023-06-26T10:42:38;14.82;;;5.70;;
6288;SDS011;3177;49.880;8.836;2023-06-26T10:45:09;6.63;;;3.83;;
6288;SDS011;3177;49.880;8.836;2023-06-26T10:47:37;4.65;;;4.25;;
6288;SDS011;3177;49.880;8.836;2023-06-26T10:50:18;8.90;;;4.40;;
6288;SDS011;3177;49.880;8.836;2023-06-26T10:52:46;6.00;;;3.70;;
6288;SDS011;3177;49.880;8.836;2023-06-26T10:55:33;5.25;;;3.95;;
6288;SDS011;3177;49.880;8.836;2023-06-26T10:58:00;5.53;;;4.90;;
6288;SDS011;3177;49.880;8.836;2023-06-26T11:00:28;6.13;;;4.25;;
6288;SDS011;3177;49.880;8.836;2023-06-26T11:02:55;5.07;;;4.30;;
6288;SDS011;3177;49.880;8.836;2023-06-26T11:05:27;5.35;;;3.92;;
6288;SDS011;3177;49.880;8.836;2023-06-26T11:08:04;5.55;;;4.25;;
6288;SDS011;3177;49.880;8.836;2023-06-26T11:13:13;10.00;;;4.10;;
6288;SDS011;3177;49.880;8.836;2023-06-26T11:15:42;4.20;;;3.88;;
6288;SDS011;3177;49.880;8.836;2023-06-26T11:18:09;7.32;;;4.22;;
6288;SDS011;3177;49.880;8.836;2023-06-26T11:20:38;5.35;;;4.05;;
6288;SDS011;3177;49.880;8.836;2023-06-26T11:23:05;4.68;;;4.28;;
6288;SDS011;3177;49.880;8.836;2023-06-26T11:25:33;21.08;;;4.03;;
6288;SDS011;3177;49.880;8.836;2023-06-26T11:28:02;72.38;;;6.38;;
6288;SDS011;3177;49.880;8.836;2023-06-26T11:30:29;5.53;;;3.90;;
6288;SDS011;3177;49.880;8.836;2023-06-26T11:33:03;5.03;;;3.78;;
6288;SDS011;3177;49.880;8.836;2023-06-26T11:35:30;8.43;;;4.78;;
6288;SDS011;3177;49.880;8.836;2023-06-26T11:37:59;8.85;;;4.70;;
6288;SDS011;3177;49.880;8.836;2023-06-26T11:40:29;7.03;;;4.13;;
6288;SDS011;3177;49.880;8.836;2023-06-26T11:42:58;10.38;;;3.67;;
6288;SDS011;3177;49.880;8.836;2023-06-26T11:45:25;4.55;;;3.83;;
6288;SDS011;3177;49.880;8.836;2023-06-26T11:47:54;6.55;;;4.15;;
6288;SDS011;3177;49.880;8.836;2023-06-26T11:50:22;69.38;;;6.00;;
6288;SDS011;3177;49.880;8.836;2023-06-26T11:52:52;7.18;;;4.40;;
6288;SDS011;3177;49.880;8.836;2023-06-26T11:55:22;4.85;;;4.35;;
6288;SDS011;3177;49.880;8.836;2023-06-26T11:57:49;4.60;;;3.90;;
6288;SDS011;3177;49.880;8.836;2023-06-26T12:00:17;4.75;;;4.10;;
6288;SDS011;3177;49.880;8.836;2023-06-26T12:02:44;5.15;;;4.00;;
6288;SDS011;3177;49.880;8.836;2023-06-26T12:05:12;7.43;;;4.15;;
6288;SDS011;3177;49.880;8.836;2023-06-26T12:07:39;4.53;;;3.70;;
6288;SDS011;3177;49.880;8.836;2023-06-26T12:10:07;4.50;;;3.85;;
6288;SDS011;3177;49.880;8.836;2023-06-26T12:12:37;6.20;;;3.72;;
6288;SDS011;3177;49.880;8.836;2023-06-26T12:15:05;4.82;;;3.95;;
6288;SDS011;3177;49.880;8.836;2023-06-26T12:17:33;4.70;;;3.53;;
6288;SDS011;3177;49.880;8.836;2023-06-26T12:20:00;47.97;;;5.70;;
6288;SDS011;3177;49.880;8.836;2023-06-26T12:22:33;4.35;;;3.60;;
6288;SDS011;3177;49.880;8.836;2023-06-26T12:25:00;17.92;;;5.20;;
6288;SDS011;3177;49.880;8.836;2023-06-26T12:27:27;18.83;;;4.07;;
6288;SDS011;3177;49.880;8.836;2023-06-26T12:29:57;15.38;;;4.13;;
6288;SDS011;3177;49.880;8.836;2023-06-26T12:32:24;4.85;;;3.90;;
6288;SDS011;3177;49.880;8.836;2023-06-26T12:34:51;5.45;;;4.28;;
6288;SDS011;3177;49.880;8.836;2023-06-26T12:37:19;6.32;;;4.05;;
6288;SDS011;3177;49.880;8.836;2023-06-26T12:39:46;6.75;;;4.00;;
6288;SDS011;3177;49.880;8.836;2023-06-26T12:42:13;10.73;;;4.38;;
6288;SDS011;3177;49.880;8.836;2023-06-26T12:44:41;5.88;;;4.53;;
6288;SDS011;3177;49.880;8.836;2023-06-26T12:47:09;5.38;;;4.30;;
6288;SDS011;3177;49.880;8.836;2023-06-26T12:49:38;17.20;;;4.78;;
6288;SDS011;3177;49.880;8.836;2023-06-26T12:52:06;38.25;;;6.13;;
6288;SDS011;3177;49.880;8.836;2023-06-26T12:54:34;21.08;;;5.30;;
6288;SDS011;3177;49.880;8.836;2023-06-26T12:57:01;8.93;;;5.20;;
6288;SDS011;3177;49.880;8.836;2023-06-26T12:59:29;9.05;;;5.25;;
6288;SDS011;3177;49.880;8.836;2023-06-26T13:01:56;7.18;;;4.47;;
6288;SDS011;3177;49.880;8.836;2023-06-26T13:04:24;4.90;;;4.50;;
6288;SDS011;3177;49.880;8.836;2023-06-26T13:06:51;7.68;;;4.38;;
6288;SDS011;3177;49.880;8.836;2023-06-26T13:09:19;5.55;;;4.63;;
6288;SDS011;3177;49.880;8.836;2023-06-26T13:11:47;5.30;;;4.30;;
6288;SDS011;3177;49.880;8.836;2023-06-26T13:14:14;17.20;;;5.55;;
6288;SDS011;3177;49.880;8.836;2023-06-26T13:16:41;10.30;;;6.25;;
6288;SDS011;3177;49.880;8.836;2023-06-26T13:19:08;5.45;;;4.95;;
6288;SDS011;3177;49.880;8.836;2023-06-26T13:21:36;6.15;;;5.55;;
6288;SDS011;3177;49.880;8.836;2023-06-26T13:24:04;6.88;;;5.30;;
6288;SDS011;3177;49.880;8.836;2023-06-26T13:26:31;6.90;;;5.63;;
6288;SDS011;3177;49.880;8.836;2023-06-26T13:28:58;5.68;;;5.18;;
6288;SDS011;3177;49.880;8.836;2023-06-26T13:31:25;7.93;;;4.63;;
6288;SDS011;3177;49.880;8.836;2023-06-26T13:33:52;7.28;;;4.88;;
6288;SDS011;3177;49.880;8.836;2023-06-26T13:36:19;9.18;;;4.47;;
6288;SDS011;3177;49.880;8.836;2023-06-26T13:38:48;5.38;;;4.22;;
6288;SDS011;3177;49.880;8.836;2023-06-26T13:41:20;8.73;;;4.63;;
6288;SDS011;3177;49.880;8.836;2023-06-26T13:43:47;4.88;;;3.97;;
6288;SDS011;3177;49.880;8.836;2023-06-26T13:46:15;8.60;;;4.00;;
6288;SDS011;3177;49.880;8.836;2023-06-26T13:48:42;5.20;;;4.15;;
6288;SDS011;3177;49.880;8.836;2023-06-26T13:51:09;6.15;;;4.97;;
6288;SDS011;3177;49.880;8.836;2023-06-26T13:53:36;5.00;;;3.75;;
6288;SDS011;3177;49.880;8.836;2023-06-26T13:56:04;8.82;;;4.30;;
6288;SDS011;3177;49.880;8.836;2023-06-26T13:58:34;14.70;;;4.88;;
6288;SDS011;3177;49.880;8.836;2023-06-26T14:01:01;16.27;;;4.82;;
6288;SDS011;3177;49.880;8.836;2023-06-26T14:03:29;5.82;;;3.90;;
6288;SDS011;3177;49.880;8.836;2023-06-26T14:05:56;6.65;;;3.72;;
6288;SDS011;3177;49.880;8.836;2023-06-26T14:08:23;5.32;;;3.60;;
6288;SDS011;3177;49.880;8.836;2023-06-26T14:10:50;5.85;;;4.25;;
6288;SDS011;3177;49.880;8.836;2023-06-26T14:13:18;9.38;;;4.28;;
6288;SDS011;3177;49.880;8.836;2023-06-26T14:15:45;7.78;;;3.72;;
6288;SDS011;3177;49.880;8.836;2023-06-26T14:18:12;4.13;;;3.70;;
6288;SDS011;3177;49.880;8.836;2023-06-26T14:20:39;5.45;;;3.95;;
6288;SDS011;3177;49.880;8.836;2023-06-26T14:23:07;36.88;;;5.35;;
6288;SDS011;3177;49.880;8.836;2023-06-26T14:25:34;3.78;;;3.47;;
6288;SDS011;3177;49.880;8.836;2023-06-26T14:28:01;4.32;;;3.50;;
6288;SDS011;3177;49.880;8.836;2023-06-26T14:30:29;6.97;;;3.72;;
6288;SDS011;3177;49.880;8.836;2023-06-26T14:32:56;4.55;;;3.80;;
6288;SDS011;3177;49.880;8.836;2023-06-26T14:35:24;7.00;;;3.22;;
6288;SDS011;3177;49.880;8.836;2023-06-26T14:37:51;5.75;;;3.80;;
6288;SDS011;3177;49.880;8.836;2023-06-26T14:40:18;5.22;;;3.05;;
6288;SDS011;3177;49.880;8.836;2023-06-26T14:42:45;6.05;;;2.90;;
6288;SDS011;3177;49.880;8.836;2023-06-26T14:45:12;3.78;;;3.38;;
6288;SDS011;3177;49.880;8.836;2023-06-26T14:47:40;71.93;;;5.70;;
6288;SDS011;3177;49.880;8.836;2023-06-26T14:50:08;33.95;;;4.50;;
6288;SDS011;3177;49.880;8.836;2023-06-26T14:52:35;4.93;;;3.50;;
6288;SDS011;3177;49.880;8.836;2023-06-26T14:55:02;5.10;;;4.28;;
6288;SDS011;3177;49.880;8.836;2023-06-26T14:57:29;4.72;;;2.78;;
6288;SDS011;3177;49.880;8.836;2023-06-26T14:59:56;5.30;;;2.75;;
6288;SDS011;3177;49.880;8.836;2023-06-26T15:02:23;6.88;;;3.20;;
6288;SDS011;3177;49.880;8.836;2023-06-26T15:04:51;6.07;;;2.70;;
6288;SDS011;3177;49.880;8.836;2023-06-26T15:07:19;3.58;;;2.97;;
6288;SDS011;3177;49.880;8.836;2023-06-26T15:09:46;5.75;;;2.85;;
6288;SDS011;3177;49.880;8.836;2023-06-26T15:12:13;3.80;;;2.72;;
6288;SDS011;3177;49.880;8.836;2023-06-26T15:14:40;2.97;;;2.47;;
6288;SDS011;3177;49.880;8.836;2023-06-26T15:17:07;56.70;;;5.00;;
6288;SDS011;3177;49.880;8.836;2023-06-26T15:19:34;51.92;;;5.60;;
6288;SDS011;3177;49.880;8.836;2023-06-26T15:22:03;5.97;;;3.33;;